Time;durP1;ratioP1;P1;durP2;ratioP2;P2;SDS_P1;SDS_P2;PMS_P1;PMS_P2;Temp;Humidity;BMP_temperature;BMP_pressure;BME280_temperature;BME280_humidity;BME280_pressure;Samples;Min_cycle;Max_cycle;Signal;HPM_P1;HPM_P2
2023/07/25 00:01:01;;;;;;;;;;;26.40;95.60;;;;;;5095930;28;19980;-64
2023/07/25 00:03:27;;;;;;;;;;;26.40;96.50;;;;;;5095713;28;19981;-63
2023/07/25 00:05:52;;;;;;;;;;;26.40;96.40;;;;;;5095704;28;20367;-64
2023/07/25 00:08:18;;;;;;;;;;;26.40;96.00;;;;;;5095976;28;20024;-63
2023/07/25 00:10:43;;;;;;;;;;;26.40;96.80;;;;;;5095354;28;19981;-64
2023/07/25 00:13:09;;;;;;;;;;;26.40;96.20;;;;;;5095625;28;20012;-64
2023/07/25 00:15:35;;;;;;;;;;;26.40;96.10;;;;;;5095509;28;20024;-64
2023/07/25 00:18:01;;;;;;;;;;;26.50;95.90;;;;;;5095672;28;19985;-63
2023/07/25 00:20:26;;;;;;;;;;;26.40;94.80;;;;;;5095413;28;20035;-63
2023/07/25 00:22:52;;;;;;;;;;;26.40;94.10;;;;;;5095417;28;19981;-64
2023/07/25 00:25:18;;;;;;;;;;;26.40;95.20;;;;;;5095162;28;20068;-63
2023/07/25 00:27:44;;;;;;;;;;;26.40;96.10;;;;;;5095430;28;19985;-64
2023/07/25 00:30:09;;;;;;;;;;;26.30;95.50;;;;;;5095290;28;19981;-64
2023/07/25 00:32:35;;;;;;;;;;;26.30;95.70;;;;;;5095030;28;20051;-64
2023/07/25 00:35:01;;;;;;;;;;;26.30;95.70;;;;;;5095055;28;19989;-64
2023/07/25 00:37:27;;;;;;;;;;;26.20;95.90;;;;;;5095140;28;19981;-64
2023/07/25 00:39:53;;;;;;;;;;;26.20;96.00;;;;;;5094815;28;19988;-64
2023/07/25 00:42:19;;;;;;;;;;;26.20;95.80;;;;;;5094921;28;19986;-63
2023/07/25 00:44:44;;;;;;;;;;;26.10;95.90;;;;;;5094764;28;19985;-63
2023/07/25 00:47:10;;;;;;;;;;;26.10;96.20;;;;;;5094938;28;20471;-63
2023/07/25 00:49:35;;;;;;;;;;;26.10;96.50;;;;;;5094868;28;20435;-64
2023/07/25 00:52:01;;;;;;;;;;;26.10;96.30;;;;;;5094883;28;20005;-65
2023/07/25 00:54:27;;;;;;;;;;;26.10;95.80;;;;;;5094583;28;20412;-62
2023/07/25 00:56:52;;;;;;;;;;;26.10;95.70;;;;;;5094604;28;19985;-64
2023/07/25 00:59:18;;;;;;;;;;;26.10;95.20;;;;;;5094770;28;19993;-63
2023/07/25 01:01:43;;;;;;;;;;;26.10;95.80;;;;;;5094624;28;20324;-64
2023/07/25 01:04:09;;;;;;;;;;;26.20;94.60;;;;;;5094890;28;20336;-63
2023/07/25 01:06:36;;;;;;;;;;;26.10;94.70;;;;;;5094561;28;20439;-63
2023/07/25 01:09:02;;;;;;;;;;;26.10;95.00;;;;;;5094407;28;19981;-63
2023/07/25 01:11:28;;;;;;;;;;;26.20;94.30;;;;;;5094448;28;20428;-62
2023/07/25 01:13:53;;;;;;;;;;;26.20;93.60;;;;;;5094335;28;20359;-63
2023/07/25 01:16:24;;;;;;;;;;;26.10;92.20;;;;;;5094572;28;20339;-64
2023/07/25 01:18:50;;;;;;;;;;;26.10;91.50;;;;;;5094387;28;20350;-63
2023/07/25 01:21:16;;;;;;;;;;;26.20;92.70;;;;;;5094097;28;20505;-64
2023/07/25 01:23:42;;;;;;;;;;;26.20;93.70;;;;;;5094389;28;19981;-64
2023/07/25 01:26:08;;;;;;;;;;;26.10;94.50;;;;;;5094224;28;19985;-63
2023/07/25 01:28:33;;;;;;;;;;;25.90;95.00;;;;;;5094218;28;19981;-63
2023/07/25 01:30:59;;;;;;;;;;;25.90;95.70;;;;;;5094155;28;19985;-64
2023/07/25 01:33:24;;;;;;;;;;;25.80;97.30;;;;;;5094187;28;20005;-63
2023/07/25 01:35:50;;;;;;;;;;;25.80;97.00;;;;;;5093833;28;20068;-62
2023/07/25 01:38:15;;;;;;;;;;;25.80;97.80;;;;;;5094225;28;19989;-64
2023/07/25 01:40:41;;;;;;;;;;;25.80;96.40;;;;;;5094107;28;19985;-63
2023/07/25 01:43:07;;;;;;;;;;;25.80;94.70;;;;;;5094079;28;20080;-64
2023/07/25 01:45:33;;;;;;;;;;;25.90;95.10;;;;;;5093268;28;20017;-64
2023/07/25 01:47:59;;;;;;;;;;;25.90;91.50;;;;;;5093950;28;19985;-63
2023/07/25 01:50:25;;;;;;;;;;;25.90;92.20;;;;;;5093789;28;20439;-64
2023/07/25 01:52:51;;;;;;;;;;;26.00;92.30;;;;;;5093710;28;20053;-62
2023/07/25 01:55:16;;;;;;;;;;;26.10;92.60;;;;;;5093971;28;20079;-64
2023/07/25 01:57:42;;;;;;;;;;;26.20;92.50;;;;;;5094044;28;20008;-63
2023/07/25 02:00:08;;;;;;;;;;;26.20;92.50;;;;;;5093933;28;20094;-64
2023/07/25 02:02:33;;;;;;;;;;;26.20;93.20;;;;;;5093917;28;19980;-64
2023/07/25 02:04:59;;;;;;;;;;;26.20;93.50;;;;;;5093571;28;20316;-64
2023/07/25 02:07:24;;;;;;;;;;;26.20;92.50;;;;;;5093667;28;20321;-65
2023/07/25 02:09:50;;;;;;;;;;;26.10;91.20;;;;;;5093666;28;19981;-63
2023/07/25 02:12:15;;;;;;;;;;;26.10;91.80;;;;;;5093596;28;20028;-64
2023/07/25 02:14:41;;;;;;;;;;;26.20;92.10;;;;;;5093720;28;20026;-64
2023/07/25 02:17:06;;;;;;;;;;;26.20;92.30;;;;;;5093522;28;20071;-63
2023/07/25 02:19:32;;;;;;;;;;;26.20;92.80;;;;;;5093432;28;19981;-62
2023/07/25 02:21:57;;;;;;;;;;;26.30;92.90;;;;;;5093598;28;20393;-64
2023/07/25 02:24:23;;;;;;;;;;;26.20;93.20;;;;;;5093432;28;19981;-62
2023/07/25 02:26:48;;;;;;;;;;;26.10;92.60;;;;;;5093638;28;19981;-64
2023/07/25 02:29:14;;;;;;;;;;;26.10;92.30;;;;;;5093655;28;20079;-62
2023/07/25 02:31:39;;;;;;;;;;;26.10;93.10;;;;;;5093355;28;20055;-64
2023/07/25 02:34:05;;;;;;;;;;;26.00;92.80;;;;;;5093312;28;19989;-63
2023/07/25 02:36:30;;;;;;;;;;;26.10;92.90;;;;;;5093548;28;19981;-63
2023/07/25 02:38:56;;;;;;;;;;;26.00;93.80;;;;;;5093463;28;19981;-64
2023/07/25 02:41:22;;;;;;;;;;;25.90;90.90;;;;;;5093716;28;20028;-63
2023/07/25 02:43:47;;;;;;;;;;;25.80;90.90;;;;;;5093727;28;20443;-63
2023/07/25 02:46:13;;;;;;;;;;;25.90;91.20;;;;;;5093250;28;20376;-64
2023/07/25 02:48:38;;;;;;;;;;;25.90;91.90;;;;;;5093128;28;20004;-63
2023/07/25 02:51:04;;;;;;;;;;;25.80;91.70;;;;;;5093333;28;19981;-64
2023/07/25 02:53:29;;;;;;;;;;;25.80;90.50;;;;;;5093310;28;20074;-63
2023/07/25 02:55:55;;;;;;;;;;;25.70;92.90;;;;;;5093264;28;19989;-63
2023/07/25 02:58:21;;;;;;;;;;;25.70;93.40;;;;;;5096369;28;20092;-64
2023/07/25 03:00:48;;;;;;;;;;;25.60;94.20;;;;;;5097145;28;20007;-65
2023/07/25 03:03:13;;;;;;;;;;;25.60;93.40;;;;;;5096773;28;20447;-63
2023/07/25 03:05:39;;;;;;;;;;;25.60;93.30;;;;;;5096878;28;20023;-64
2023/07/25 03:08:05;;;;;;;;;;;25.70;93.80;;;;;;5097025;28;19989;-64
2023/07/25 03:10:31;;;;;;;;;;;25.70;94.20;;;;;;5097048;28;20481;-63
2023/07/25 03:12:57;;;;;;;;;;;25.70;95.00;;;;;;5096741;28;20424;-63
2023/07/25 03:15:22;;;;;;;;;;;25.80;94.70;;;;;;5096834;28;19981;-63
2023/07/25 03:17:48;;;;;;;;;;;25.80;94.30;;;;;;5096522;28;19985;-62
2023/07/25 03:20:13;;;;;;;;;;;25.80;94.40;;;;;;5096613;28;20028;-63
2023/07/25 03:22:39;;;;;;;;;;;25.80;94.50;;;;;;5096717;28;19981;-64
2023/07/25 03:25:05;;;;;;;;;;;25.70;95.00;;;;;;5096506;28;20057;-64
2023/07/25 03:27:30;;;;;;;;;;;25.70;95.40;;;;;;5096419;28;20031;-64
2023/07/25 03:29:56;;;;;;;;;;;25.70;95.20;;;;;;5096469;28;20346;-64
2023/07/25 03:32:21;;;;;;;;;;;25.70;94.70;;;;;;5096163;28;20005;-63
2023/07/25 03:34:47;;;;;;;;;;;25.70;95.30;;;;;;5096305;28;20030;-64
2023/07/25 03:37:12;;;;;;;;;;;25.60;96.10;;;;;;5096423;28;19981;-64
2023/07/25 03:39:38;;;;;;;;;;;25.30;97.10;;;;;;5096305;28;20020;-62
2023/07/25 03:42:03;;;;;;;;;;;25.20;97.80;;;;;;5096250;28;19981;-64
2023/07/25 03:44:29;;;;;;;;;;;25.30;97.60;;;;;;5095912;28;20031;-64
2023/07/25 03:46:54;;;;;;;;;;;25.30;96.80;;;;;;5095953;28;20514;-63
2023/07/25 03:49:20;;;;;;;;;;;25.30;96.20;;;;;;5096085;28;20355;-63
2023/07/25 03:51:45;;;;;;;;;;;25.20;96.80;;;;;;5095948;28;20402;-63
2023/07/25 03:54:11;;;;;;;;;;;25.20;97.30;;;;;;5096297;28;19985;-63
2023/07/25 03:56:37;;;;;;;;;;;25.20;97.30;;;;;;5096277;28;20071;-64
2023/07/25 03:59:03;;;;;;;;;;;25.30;97.30;;;;;;5095767;28;19997;-64
2023/07/25 04:01:28;;;;;;;;;;;25.40;97.60;;;;;;5095657;28;20442;-64
2023/07/25 04:03:54;;;;;;;;;;;25.40;97.30;;;;;;5095867;28;19981;-63
2023/07/25 04:06:19;;;;;;;;;;;25.30;98.20;;;;;;5095628;28;19988;-64
2023/07/25 04:08:45;;;;;;;;;;;25.30;98.50;;;;;;5095542;28;19989;-63
2023/07/25 04:11:14;;;;;;;;;;;25.30;98.80;;;;;;5095836;28;19984;-63
2023/07/25 04:13:39;;;;;;;;;;;25.40;98.60;;;;;;5095634;28;19981;-63
2023/07/25 04:16:05;;;;;;;;;;;25.40;99.40;;;;;;5095511;28;20051;-63
2023/07/25 04:18:31;;;;;;;;;;;25.50;99.30;;;;;;5095528;28;20020;-65
2023/07/25 04:20:56;;;;;;;;;;;25.40;98.70;;;;;;5095428;28;20031;-64
2023/07/25 04:23:22;;;;;;;;;;;25.40;98.60;;;;;;5095324;28;19985;-64
2023/07/25 04:25:50;;;;;;;;;;;25.50;98.70;;;;;;5095469;28;20030;-64
2023/07/25 04:28:16;;;;;;;;;;;25.50;99.40;;;;;;5095359;28;19988;-63
2023/07/25 04:30:42;;;;;;;;;;;25.60;99.40;;;;;;5095041;28;19981;-63
2023/07/25 04:33:07;;;;;;;;;;;25.60;99.30;;;;;;5095304;28;20040;-63
2023/07/25 04:35:33;;;;;;;;;;;25.50;98.80;;;;;;5095280;28;20012;-63
2023/07/25 04:37:58;;;;;;;;;;;25.50;99.20;;;;;;5095071;28;19981;-63
2023/07/25 04:40:24;;;;;;;;;;;25.50;99.90;;;;;;5095160;28;20427;-63
2023/07/25 04:42:50;;;;;;;;;;;25.50;99.80;;;;;;5095065;28;19981;-64
2023/07/25 04:45:16;;;;;;;;;;;25.60;99.90;;;;;;5094594;28;20017;-64
2023/07/25 04:47:41;;;;;;;;;;;25.70;99.40;;;;;;5094953;28;19989;-64
2023/07/25 04:50:07;;;;;;;;;;;25.80;99.40;;;;;;5094998;28;20431;-65
2023/07/25 04:52:32;;;;;;;;;;;25.80;99.40;;;;;;5094684;28;20083;-63
2023/07/25 04:54:58;;;;;;;;;;;25.90;99.80;;;;;;5094731;28;19988;-63
2023/07/25 04:57:24;;;;;;;;;;;26.00;98.90;;;;;;5095056;28;20012;-64
2023/07/25 04:59:50;;;;;;;;;;;26.00;97.90;;;;;;5094563;28;19989;-64
2023/07/25 05:02:15;;;;;;;;;;;26.10;98.60;;;;;;5094592;28;20026;-63
2023/07/25 05:04:41;;;;;;;;;;;26.00;99.50;;;;;;5094741;28;20485;-64
2023/07/25 05:07:06;;;;;;;;;;;26.10;99.90;;;;;;5094903;28;20054;-63
2023/07/25 05:09:32;;;;;;;;;;;26.10;99.60;;;;;;5094417;28;20075;-63
2023/07/25 05:11:58;;;;;;;;;;;26.20;99.10;;;;;;5094556;28;20009;-63
2023/07/25 05:14:23;;;;;;;;;;;26.30;99.60;;;;;;5094386;28;19981;-64
2023/07/25 05:16:49;;;;;;;;;;;26.10;99.70;;;;;;5094401;28;20122;-64
2023/07/25 05:19:14;;;;;;;;;;;26.10;99.30;;;;;;5093579;28;19993;-64
2023/07/25 05:21:40;;;;;;;;;;;26.20;99.30;;;;;;5094288;28;20432;-63
2023/07/25 05:24:05;;;;;;;;;;;26.30;99.10;;;;;;5094285;28;20003;-64
2023/07/25 05:26:31;;;;;;;;;;;26.40;98.50;;;;;;5094116;28;20054;-63
2023/07/25 05:28:56;;;;;;;;;;;26.50;98.50;;;;;;5093943;28;19985;-62
2023/07/25 05:31:22;;;;;;;;;;;26.60;97.10;;;;;;5094141;28;20071;-63
2023/07/25 05:33:47;;;;;;;;;;;26.70;95.80;;;;;;5094115;28;19984;-62
2023/07/25 05:36:13;;;;;;;;;;;26.80;96.40;;;;;;5094409;28;20447;-64
2023/07/25 05:38:39;;;;;;;;;;;26.80;97.10;;;;;;5092801;28;20079;-64
2023/07/25 05:41:04;;;;;;;;;;;26.90;96.30;;;;;;5093950;28;19988;-64
2023/07/25 05:43:30;;;;;;;;;;;27.00;96.80;;;;;;5093917;28;20013;-63
2023/07/25 05:45:55;;;;;;;;;;;27.10;96.60;;;;;;5093822;28;20086;-64
2023/07/25 05:48:21;;;;;;;;;;;27.20;96.20;;;;;;5093865;28;19988;-63
2023/07/25 05:50:52;;;;;;;;;;;27.40;96.30;;;;;;5093782;28;19982;-63
2023/07/25 05:53:18;;;;;;;;;;;27.30;96.30;;;;;;5093850;28;20032;-64
2023/07/25 05:55:45;;;;;;;;;;;27.40;97.80;;;;;;5093827;28;20424;-63
2023/07/25 05:58:13;;;;;;;;;;;27.50;97.70;;;;;;5093826;28;20437;-63
2023/07/25 06:00:38;;;;;;;;;;;27.60;97.50;;;;;;5094055;28;19996;-64
2023/07/25 06:03:04;;;;;;;;;;;27.80;96.50;;;;;;5093825;28;20452;-63
2023/07/25 06:05:29;;;;;;;;;;;28.00;97.00;;;;;;5093676;28;19981;-63
2023/07/25 06:07:55;;;;;;;;;;;28.20;95.30;;;;;;5093830;28;20072;-64
2023/07/25 06:10:20;;;;;;;;;;;28.30;94.10;;;;;;5093928;28;19984;-64
2023/07/25 06:12:46;;;;;;;;;;;28.50;94.40;;;;;;5093427;28;20005;-64
2023/07/25 06:15:12;;;;;;;;;;;28.60;91.70;;;;;;5093764;28;20015;-64
2023/07/25 06:17:37;;;;;;;;;;;28.80;88.60;;;;;;5093706;28;20463;-64
2023/07/25 06:20:03;;;;;;;;;;;28.90;84.20;;;;;;5093839;28;20068;-64
2023/07/25 06:22:29;;;;;;;;;;;29.00;89.60;;;;;;5093620;28;20004;-63
2023/07/25 06:24:54;;;;;;;;;;;29.20;85.20;;;;;;5093572;28;20346;-64
2023/07/25 06:27:20;;;;;;;;;;;29.40;81.70;;;;;;5093358;28;19981;-63
2023/07/25 06:29:45;;;;;;;;;;;29.40;82.20;;;;;;5093530;28;20019;-64
2023/07/25 06:32:11;;;;;;;;;;;29.50;81.40;;;;;;5096668;28;20005;-63
2023/07/25 06:34:36;;;;;;;;;;;29.60;80.50;;;;;;5097682;28;20459;-62
2023/07/25 06:37:02;;;;;;;;;;;29.70;78.50;;;;;;5097420;28;19980;-63
2023/07/25 06:39:27;;;;;;;;;;;29.80;81.30;;;;;;5097510;28;19992;-64
2023/07/25 06:41:53;;;;;;;;;;;29.80;78.50;;;;;;5097224;28;19982;-64
2023/07/25 06:44:19;;;;;;;;;;;29.80;75.50;;;;;;5097316;28;20016;-64
2023/07/25 06:46:45;;;;;;;;;;;29.90;77.20;;;;;;5097145;28;20486;-63
2023/07/25 06:49:11;;;;;;;;;;;29.90;75.40;;;;;;5097343;28;19981;-63
2023/07/25 06:51:36;;;;;;;;;;;29.90;78.20;;;;;;5097033;28;20531;-63
2023/07/25 06:54:02;;;;;;;;;;;30.00;79.20;;;;;;5097160;28;19981;-62
2023/07/25 06:56:27;;;;;;;;;;;30.30;76.50;;;;;;5096954;28;20028;-64
2023/07/25 06:58:53;;;;;;;;;;;30.30;77.50;;;;;;5096905;28;20032;-62
2023/07/25 07:01:19;;;;;;;;;;;30.40;76.50;;;;;;5097014;28;20486;-64
2023/07/25 07:03:44;;;;;;;;;;;30.40;75.90;;;;;;5096954;28;19985;-62
2023/07/25 07:06:10;;;;;;;;;;;30.60;76.50;;;;;;5097218;28;19992;-64
2023/07/25 07:08:35;;;;;;;;;;;30.90;80.00;;;;;;5097114;28;19985;-62
2023/07/25 07:11:01;;;;;;;;;;;31.10;78.40;;;;;;5096753;28;20435;-64
2023/07/25 07:13:27;;;;;;;;;;;31.20;81.40;;;;;;5096685;28;20456;-63
2023/07/25 07:15:53;;;;;;;;;;;31.30;75.80;;;;;;5096697;28;19981;-64
2023/07/25 07:18:18;;;;;;;;;;;31.30;72.40;;;;;;5096845;28;20042;-62
2023/07/25 07:20:48;;;;;;;;;;;31.40;74.00;;;;;;5096804;28;19982;-63
2023/07/25 07:23:13;;;;;;;;;;;31.70;75.90;;;;;;5096567;28;19981;-63
2023/07/25 07:25:40;;;;;;;;;;;32.30;76.00;;;;;;5096405;28;20007;-64
2023/07/25 07:28:05;;;;;;;;;;;33.70;71.80;;;;;;5096257;28;19992;-63
2023/07/25 07:30:31;;;;;;;;;;;35.40;64.50;;;;;;5096368;28;20356;-64
2023/07/25 07:32:57;;;;;;;;;;;36.70;59.10;;;;;;5093554;28;20009;-62
2023/07/25 07:35:22;;;;;;;;;;;37.70;57.50;;;;;;5082571;28;19985;-63
2023/07/25 07:37:48;;;;;;;;;;;37.80;57.70;;;;;;5096329;28;20454;-64
2023/07/25 07:40:14;;;;;;;;;;;37.80;58.80;;;;;;5083960;28;20411;-63
2023/07/25 07:42:39;;;;;;;;;;;38.60;54.30;;;;;;5075306;28;20076;-64
2023/07/25 07:45:05;;;;;;;;;;;39.60;54.20;;;;;;5075871;28;20017;-64
2023/07/25 07:47:30;;;;;;;;;;;39.30;50.60;;;;;;5075834;28;20463;-65
2023/07/25 07:49:56;;;;;;;;;;;39.40;49.00;;;;;;5076029;28;19982;-64
2023/07/25 07:52:22;;;;;;;;;;;39.60;47.70;;;;;;5075825;28;20048;-62
2023/07/25 07:54:47;;;;;;;;;;;40.10;49.70;;;;;;5089211;28;20402;-63
2023/07/25 07:57:13;;;;;;;;;;;41.00;48.40;;;;;;5096046;28;20001;-63
2023/07/25 07:59:41;;;;;;;;;;;41.60;48.50;;;;;;5095905;28;19988;-62
2023/07/25 08:02:07;;;;;;;;;;;42.10;47.20;;;;;;5080608;28;20422;-64
2023/07/25 08:04:32;;;;;;;;;;;42.20;50.90;;;;;;5076486;28;19989;-63
2023/07/25 08:06:58;;;;;;;;;;;42.50;47.10;;;;;;5075862;28;19989;-65
2023/07/25 08:09:24;;;;;;;;;;;42.90;44.90;;;;;;5075277;28;20330;-62
2023/07/25 08:11:49;;;;;;;;;;;42.50;40.70;;;;;;5075269;28;20017;-64
2023/07/25 08:14:15;;;;;;;;;;;42.00;41.60;;;;;;5075423;28;19981;-64
2023/07/25 08:16:40;;;;;;;;;;;42.10;42.40;;;;;;5077977;28;19993;-62
2023/07/25 08:19:06;;;;;;;;;;;42.30;41.20;;;;;;5078345;28;20508;-64
2023/07/25 08:21:32;;;;;;;;;;;42.60;43.20;;;;;;5078238;28;19982;-64
2023/07/25 08:23:58;;;;;;;;;;;43.00;42.10;;;;;;5086209;28;20000;-65
2023/07/25 08:26:23;;;;;;;;;;;43.40;43.20;;;;;;5095057;28;19985;-63
2023/07/25 08:28:49;;;;;;;;;;;43.90;44.10;;;;;;5095158;28;20511;-64
2023/07/25 08:31:14;;;;;;;;;;;44.00;40.40;;;;;;5095306;28;20405;-63
2023/07/25 08:33:42;;;;;;;;;;;44.30;41.50;;;;;;5076956;28;20040;-63
2023/07/25 08:36:08;;;;;;;;;;;44.40;39.80;;;;;;5075081;28;19990;-65
2023/07/25 08:38:34;;;;;;;;;;;44.00;39.50;;;;;;5074587;28;19988;-64
2023/07/25 08:41:08;;;;;;;;;;;43.80;40.20;;;;;;5091172;28;19989;-62
2023/07/25 08:43:37;;;;;;;;;;;44.10;40.30;;;;;;5095384;28;19984;-62
2023/07/25 08:46:05;;;;;;;;;;;44.50;39.90;;;;;;5082415;28;20132;-62
2023/07/25 08:48:31;;;;;;;;;;;44.80;39.80;;;;;;5074421;28;19996;-63
2023/07/25 08:50:58;;;;;;;;;;;44.80;38.40;;;;;;5074669;28;20453;-62
2023/07/25 08:53:24;;;;;;;;;;;44.70;38.10;;;;;;5073572;28;20009;-64
2023/07/25 08:55:51;;;;;;;;;;;44.60;39.00;;;;;;5072541;28;20394;-63
2023/07/25 08:58:17;;;;;;;;;;;44.70;39.70;;;;;;5074200;28;19997;-63
2023/07/25 09:00:43;;;;;;;;;;;43.10;38.80;;;;;;5074082;28;19988;-63
2023/07/25 09:03:08;;;;;;;;;;;43.00;39.60;;;;;;5073054;28;19990;-64
2023/07/25 09:05:34;;;;;;;;;;;43.40;42.20;;;;;;5074046;28;20396;-64
2023/07/25 09:08:00;;;;;;;;;;;43.80;40.60;;;;;;5073912;28;20030;-62
2023/07/25 09:10:29;;;;;;;;;;;43.80;39.10;;;;;;5074423;28;20486;-63
2023/07/25 09:12:54;;;;;;;;;;;43.40;39.40;;;;;;5074324;28;20010;-64
2023/07/25 09:15:20;;;;;;;;;;;43.50;41.60;;;;;;5074427;28;20351;-62
2023/07/25 09:17:45;;;;;;;;;;;43.70;39.10;;;;;;5074173;28;19985;-62
2023/07/25 09:20:12;;;;;;;;;;;43.20;39.00;;;;;;5074071;28;20020;-64
2023/07/25 09:22:37;;;;;;;;;;;42.90;41.40;;;;;;5074185;28;19991;-64
2023/07/25 09:25:07;;;;;;;;;;;42.80;39.20;;;;;;5074137;28;19981;-64
2023/07/25 09:27:32;;;;;;;;;;;42.60;39.40;;;;;;5074187;28;19991;-64
2023/07/25 09:29:58;;;;;;;;;;;42.80;38.80;;;;;;5073982;28;20427;-64
2023/07/25 09:32:25;;;;;;;;;;;42.70;39.70;;;;;;5073782;28;20009;-64
2023/07/25 09:35:06;;;;;;;;;;;42.90;38.60;;;;;;5074124;28;19985;-64
2023/07/25 09:37:32;;;;;;;;;;;43.00;40.20;;;;;;5073789;28;20098;-62
2023/07/25 09:39:57;;;;;;;;;;;43.00;38.30;;;;;;5073862;28;20019;-62
2023/07/25 09:42:23;;;;;;;;;;;43.10;39.10;;;;;;5073934;28;19986;-63
2023/07/25 09:44:51;;;;;;;;;;;43.10;38.40;;;;;;5073518;28;20017;-62
2023/07/25 09:47:23;;;;;;;;;;;42.40;38.70;;;;;;5073997;28;20329;-64
2023/07/25 09:49:50;;;;;;;;;;;41.60;40.20;;;;;;5073875;28;19985;-62
2023/07/25 09:52:16;;;;;;;;;;;41.00;41.60;;;;;;5073641;28;20005;-63
2023/07/25 09:54:41;;;;;;;;;;;40.50;43.40;;;;;;5073571;28;19993;-64
2023/07/25 09:57:07;;;;;;;;;;;40.00;46.50;;;;;;5073662;28;19989;-63
2023/07/25 09:59:34;;;;;;;;;;;39.10;49.40;;;;;;5073770;28;19985;-63
2023/07/25 10:02:00;;;;;;;;;;;38.40;50.60;;;;;;5073698;28;20507;-63
2023/07/25 10:04:25;;;;;;;;;;;37.60;52.50;;;;;;5073379;28;19982;-63
2023/07/25 10:06:52;;;;;;;;;;;36.80;54.80;;;;;;5073202;28;20060;-63
2023/07/25 10:09:18;;;;;;;;;;;36.20;56.80;;;;;;5073962;28;19989;-63
2023/07/25 10:11:44;;;;;;;;;;;35.80;59.10;;;;;;5073390;28;20452;-63
2023/07/25 10:14:09;;;;;;;;;;;35.30;61.10;;;;;;5073624;28;20393;-64
2023/07/25 10:16:35;;;;;;;;;;;35.00;63.20;;;;;;5073482;28;19981;-62
2023/07/25 10:19:04;;;;;;;;;;;35.00;63.80;;;;;;5073215;28;20478;-63
2023/07/25 10:21:45;;;;;;;;;;;35.10;63.80;;;;;;5073551;28;20093;-62
2023/07/25 10:24:11;;;;;;;;;;;35.10;65.70;;;;;;5073399;28;20030;-62
2023/07/25 10:26:51;;;;;;;;;;;35.40;63.20;;;;;;5073413;28;19989;-62
2023/07/25 10:29:34;;;;;;;;;;;35.30;62.70;;;;;;5073418;28;19985;-63
2023/07/25 10:32:00;;;;;;;;;;;35.10;63.70;;;;;;5073252;28;20052;-62
2023/07/25 10:34:42;;;;;;;;;;;35.00;64.60;;;;;;5073126;28;20356;-63
2023/07/25 10:37:23;;;;;;;;;;;35.20;65.40;;;;;;5073605;28;20031;-63
2023/07/25 10:40:07;;;;;;;;;;;35.50;62.20;;;;;;5073261;28;19989;-63
2023/07/25 10:42:42;;;;;;;;;;;36.30;59.80;;;;;;5073308;28;19989;-63
2023/07/25 10:45:28;;;;;;;;;;;36.60;58.50;;;;;;5073074;28;20115;-62
2023/07/25 10:47:54;;;;;;;;;;;36.60;58.50;;;;;;5068895;28;20035;-63
2023/07/25 10:50:24;;;;;;;;;;;37.00;59.20;;;;;;5073182;28;19985;-63
2023/07/25 10:52:50;;;;;;;;;;;37.10;57.60;;;;;;5073005;28;20005;-64
2023/07/25 10:55:15;;;;;;;;;;;37.40;59.10;;;;;;5073274;28;19986;-63
2023/07/25 10:57:41;;;;;;;;;;;37.60;60.50;;;;;;5073286;28;20001;-62
2023/07/25 11:00:10;;;;;;;;;;;38.00;59.30;;;;;;5071756;28;20039;-64
2023/07/25 11:02:38;;;;;;;;;;;38.30;54.10;;;;;;5073167;28;19993;-64
2023/07/25 11:05:13;;;;;;;;;;;38.50;54.60;;;;;;5073311;28;19985;-63
2023/07/25 11:07:38;;;;;;;;;;;38.70;56.20;;;;;;5071754;28;20367;-62
2023/07/25 11:10:04;;;;;;;;;;;38.40;52.70;;;;;;5072927;28;19981;-63
2023/07/25 11:12:30;;;;;;;;;;;38.20;53.70;;;;;;5073133;28;20016;-63
2023/07/25 11:14:56;;;;;;;;;;;37.90;52.90;;;;;;5072817;28;20457;-63
2023/07/25 11:17:26;;;;;;;;;;;37.60;53.10;;;;;;5072787;28;20007;-64
2023/07/25 11:19:52;;;;;;;;;;;37.40;53.40;;;;;;5076512;28;19981;-64
2023/07/25 11:22:17;;;;;;;;;;;37.10;54.90;;;;;;5076362;28;20403;-64
2023/07/25 11:24:43;;;;;;;;;;;36.70;58.00;;;;;;5076446;28;19981;-63
2023/07/25 11:27:09;;;;;;;;;;;36.00;62.20;;;;;;5076368;28;19982;-63
2023/07/25 11:29:35;;;;;;;;;;;35.20;65.10;;;;;;5076186;28;20004;-64
2023/07/25 11:32:01;;;;;;;;;;;34.80;66.30;;;;;;5076185;28;20016;-64
2023/07/25 11:34:26;;;;;;;;;;;34.70;69.40;;;;;;5076414;28;19992;-64
2023/07/25 11:36:53;;;;;;;;;;;34.70;68.80;;;;;;5076061;28;20432;-63
2023/07/25 11:39:19;;;;;;;;;;;34.70;69.00;;;;;;5076141;28;20351;-64
2023/07/25 11:41:45;;;;;;;;;;;34.90;60.90;;;;;;5075974;28;19985;-65
2023/07/25 11:44:12;;;;;;;;;;;34.90;60.70;;;;;;5076215;28;19986;-62
2023/07/25 11:46:42;;;;;;;;;;;34.90;61.40;;;;;;5075622;28;20471;-64
2023/07/25 11:49:08;;;;;;;;;;;34.90;58.70;;;;;;5075853;28;19990;-64
2023/07/25 11:51:35;;;;;;;;;;;35.20;58.90;;;;;;5075987;28;19993;-62
2023/07/25 11:54:01;;;;;;;;;;;35.70;58.40;;;;;;5076153;28;19993;-62
2023/07/25 11:56:26;;;;;;;;;;;35.70;57.30;;;;;;5074535;28;19985;-63
2023/07/25 11:58:52;;;;;;;;;;;35.70;55.90;;;;;;5075663;28;20483;-64
2023/07/25 12:01:18;;;;;;;;;;;35.70;57.30;;;;;;5075784;28;20015;-63
2023/07/25 12:03:50;;;;;;;;;;;35.50;55.90;;;;;;5075637;28;19982;-64
2023/07/25 12:06:25;;;;;;;;;;;35.50;56.80;;;;;;5075832;28;19992;-63
2023/07/25 12:08:50;;;;;;;;;;;35.50;56.30;;;;;;5075660;28;20428;-64
2023/07/25 12:11:16;;;;;;;;;;;35.80;55.40;;;;;;5075589;28;19987;-62
2023/07/25 12:13:46;;;;;;;;;;;36.20;54.10;;;;;;5075578;28;20010;-63
2023/07/25 12:16:24;;;;;;;;;;;36.70;54.30;;;;;;5075227;28;20320;-63
2023/07/25 12:18:53;;;;;;;;;;;36.90;52.40;;;;;;5075353;28;19981;-62
2023/07/25 12:21:24;;;;;;;;;;;36.80;51.80;;;;;;5075581;28;19989;-64
2023/07/25 12:23:51;;;;;;;;;;;36.70;52.50;;;;;;5075305;28;19982;-64
2023/07/25 12:26:20;;;;;;;;;;;36.60;50.70;;;;;;5075443;28;20414;-63
2023/07/25 12:28:46;;;;;;;;;;;36.60;52.30;;;;;;5074792;28;19985;-63
2023/07/25 12:31:12;;;;;;;;;;;36.90;51.10;;;;;;5075121;28;20056;-63
2023/07/25 12:33:38;;;;;;;;;;;37.20;51.00;;;;;;5075458;28;20188;-62
2023/07/25 12:36:04;;;;;;;;;;;37.50;49.60;;;;;;5075539;28;20395;-64
2023/07/25 12:38:29;;;;;;;;;;;37.80;49.70;;;;;;5074877;28;19990;-62
2023/07/25 12:40:55;;;;;;;;;;;38.00;48.10;;;;;;5074928;28;19981;-64
2023/07/25 12:43:20;;;;;;;;;;;38.00;50.10;;;;;;5074736;28;20064;-64
2023/07/25 12:45:46;;;;;;;;;;;37.80;48.30;;;;;;5074372;28;20017;-65
2023/07/25 12:48:12;;;;;;;;;;;37.80;47.70;;;;;;5074767;28;19985;-64
2023/07/25 12:50:39;;;;;;;;;;;37.80;48.50;;;;;;5074675;28;20083;-62
2023/07/25 12:53:04;;;;;;;;;;;38.30;47.80;;;;;;5074701;28;20005;-63
2023/07/25 12:55:30;;;;;;;;;;;38.20;46.80;;;;;;5074633;28;19981;-63
2023/07/25 12:57:56;;;;;;;;;;;37.90;46.60;;;;;;5074465;28;19997;-64
2023/07/25 13:00:21;;;;;;;;;;;37.80;47.50;;;;;;5074365;28;20487;-64
2023/07/25 13:02:47;;;;;;;;;;;37.70;47.00;;;;;;5074473;28;20351;-62
2023/07/25 13:05:12;;;;;;;;;;;37.60;46.80;;;;;;5074362;28;19985;-64
2023/07/25 13:07:38;;;;;;;;;;;37.40;47.30;;;;;;5074686;28;19998;-63
2023/07/25 13:10:06;;;;;;;;;;;37.20;46.70;;;;;;5074357;28;19981;-64
2023/07/25 13:12:31;;;;;;;;;;;37.20;47.50;;;;;;5074021;28;20075;-63
2023/07/25 13:14:57;;;;;;;;;;;37.00;46.80;;;;;;5074235;28;20759;-64
2023/07/25 13:17:23;;;;;;;;;;;36.80;45.70;;;;;;5074448;28;19986;-65
2023/07/25 13:19:48;;;;;;;;;;;36.60;45.30;;;;;;5074254;28;19988;-64
2023/07/25 13:22:14;;;;;;;;;;;36.40;46.90;;;;;;5074027;28;19981;-65
2023/07/25 13:24:39;;;;;;;;;;;36.20;45.00;;;;;;5074080;28;19982;-64
2023/07/25 13:27:05;;;;;;;;;;;35.90;46.20;;;;;;5074055;28;19981;-63
2023/07/25 13:29:30;;;;;;;;;;;35.80;45.80;;;;;;5073735;28;19994;-62
2023/07/25 13:31:56;;;;;;;;;;;35.90;47.20;;;;;;5072685;28;20010;-62
2023/07/25 13:34:22;;;;;;;;;;;36.00;46.90;;;;;;5073998;28;19981;-62
2023/07/25 13:36:48;;;;;;;;;;;36.10;46.70;;;;;;5074108;28;19989;-64
2023/07/25 13:39:13;;;;;;;;;;;35.90;47.20;;;;;;5074160;28;20008;-63
2023/07/25 13:41:39;;;;;;;;;;;35.90;48.50;;;;;;5073480;28;20008;-64
2023/07/25 13:44:04;;;;;;;;;;;35.70;46.40;;;;;;5073780;28;20004;-62
2023/07/25 13:46:30;;;;;;;;;;;35.50;47.20;;;;;;5073608;28;20083;-63
2023/07/25 13:48:56;;;;;;;;;;;35.30;46.50;;;;;;5073915;28;20479;-63
2023/07/25 13:51:21;;;;;;;;;;;34.90;47.70;;;;;;5074044;28;20047;-64
2023/07/25 13:53:47;;;;;;;;;;;34.60;49.40;;;;;;5073587;28;20028;-64
2023/07/25 13:56:13;;;;;;;;;;;34.80;48.00;;;;;;5073670;28;19985;-64
2023/07/25 13:58:38;;;;;;;;;;;35.40;48.50;;;;;;5073729;28;20001;-64
2023/07/25 14:01:04;;;;;;;;;;;35.90;47.70;;;;;;5073616;28;19981;-65
2023/07/25 14:03:29;;;;;;;;;;;36.10;46.40;;;;;;5073783;28;19985;-63
2023/07/25 14:05:55;;;;;;;;;;;36.40;46.50;;;;;;5073732;28;19982;-63
2023/07/25 14:08:20;;;;;;;;;;;36.60;46.20;;;;;;5073534;28;20431;-63
2023/07/25 14:10:46;;;;;;;;;;;36.60;47.00;;;;;;5073711;28;20376;-65